sensor_id;sensor_type;location;lat;lon;timestamp;temperature;humidity
73643;DHT22;61938;48.652;9.292;2023-02-01T00:01:29;3.50;99.90
73643;DHT22;61938;48.652;9.292;2023-02-01T00:03:54;3.40;99.90
73643;DHT22;61938;48.652;9.292;2023-02-01T00:06:20;3.40;99.90
73643;DHT22;61938;48.652;9.292;2023-02-01T00:08:45;3.40;99.90
73643;DHT22;61938;48.652;9.292;2023-02-01T00:11:12;3.40;99.90
73643;DHT22;61938;48.652;9.292;2023-02-01T00:13:40;3.40;99.90
73643;DHT22;61938;48.652;9.292;2023-02-01T00:16:17;3.40;99.90
73643;DHT22;61938;48.652;9.292;2023-02-01T00:18:47;3.30;99.90
73643;DHT22;61938;48.652;9.292;2023-02-01T00:21:18;3.30;99.90
73643;DHT22;61938;48.652;9.292;2023-02-01T00:23:44;3.30;99.90
73643;DHT22;61938;48.652;9.292;2023-02-01T00:26:22;3.30;99.90
73643;DHT22;61938;48.652;9.292;2023-02-01T00:28:50;3.20;99.90
73643;DHT22;61938;48.652;9.292;2023-02-01T00:31:16;3.30;99.90
73643;DHT22;61938;48.652;9.292;2023-02-01T00:33:41;3.20;99.90
73643;DHT22;61938;48.652;9.292;2023-02-01T00:36:08;3.20;99.90
73643;DHT22;61938;48.652;9.292;2023-02-01T00:38:37;3.20;99.90
73643;DHT22;61938;48.652;9.292;2023-02-01T00:41:13;3.20;99.90
73643;DHT22;61938;48.652;9.292;2023-02-01T00:43:39;3.30;99.90
73643;DHT22;61938;48.652;9.292;2023-02-01T00:46:05;3.30;99.90
73643;DHT22;61938;48.652;9.292;2023-02-01T00:48:31;3.30;99.90
73643;DHT22;61938;48.652;9.292;2023-02-01T00:51:01;3.20;99.90
73643;DHT22;61938;48.652;9.292;2023-02-01T00:53:27;3.20;99.90
73643;DHT22;61938;48.652;9.292;2023-02-01T00:55:52;3.20;99.90
73643;DHT22;61938;48.652;9.292;2023-02-01T00:58:18;3.30;99.90
73643;DHT22;61938;48.652;9.292;2023-02-01T01:00:44;3.30;99.90
73643;DHT22;61938;48.652;9.292;2023-02-01T01:03:09;3.30;99.90
73643;DHT22;61938;48.652;9.292;2023-02-01T01:05:47;3.30;99.90
73643;DHT22;61938;48.652;9.292;2023-02-01T01:08:14;3.30;99.90
73643;DHT22;61938;48.652;9.292;2023-02-01T01:10:41;3.20;99.90
73643;DHT22;61938;48.652;9.292;2023-02-01T01:13:07;3.30;99.90
73643;DHT22;61938;48.652;9.292;2023-02-01T01:15:39;3.30;99.90
73643;DHT22;61938;48.652;9.292;2023-02-01T01:18:05;3.30;99.90
73643;DHT22;61938;48.652;9.292;2023-02-01T01:20:34;3.30;99.90
73643;DHT22;61938;48.652;9.292;2023-02-01T01:22:59;3.30;99.90
73643;DHT22;61938;48.652;9.292;2023-02-01T01:25:25;3.30;99.90
73643;DHT22;61938;48.652;9.292;2023-02-01T01:27:50;3.30;99.90
73643;DHT22;61938;48.652;9.292;2023-02-01T01:30:16;3.30;99.90
73643;DHT22;61938;48.652;9.292;2023-02-01T01:32:42;3.30;99.90
73643;DHT22;61938;48.652;9.292;2023-02-01T01:35:08;3.30;99.90
73643;DHT22;61938;48.652;9.292;2023-02-01T01:37:33;3.30;99.90
73643;DHT22;61938;48.652;9.292;2023-02-01T01:40:00;3.30;99.90
73643;DHT22;61938;48.652;9.292;2023-02-01T01:42:26;3.30;99.90
73643;DHT22;61938;48.652;9.292;2023-02-01T01:45:05;3.30;99.90
73643;DHT22;61938;48.652;9.292;2023-02-01T01:47:37;3.40;99.90
73643;DHT22;61938;48.652;9.292;2023-02-01T01:50:06;3.40;99.90
73643;DHT22;61938;48.652;9.292;2023-02-01T01:52:32;3.40;99.90
73643;DHT22;61938;48.652;9.292;2023-02-01T01:54:58;3.40;99.90
73643;DHT22;61938;48.652;9.292;2023-02-01T01:57:28;3.40;99.90
73643;DHT22;61938;48.652;9.292;2023-02-01T02:00:19;3.40;99.90
73643;DHT22;61938;48.652;9.292;2023-02-01T02:02:47;3.40;99.90
73643;DHT22;61938;48.652;9.292;2023-02-01T02:05:13;3.40;99.90
73643;DHT22;61938;48.652;9.292;2023-02-01T02:07:43;3.40;99.90
73643;DHT22;61938;48.652;9.292;2023-02-01T02:10:12;3.40;99.90
73643;DHT22;61938;48.652;9.292;2023-02-01T02:12:40;3.40;99.90
73643;DHT22;61938;48.652;9.292;2023-02-01T02:15:08;3.40;99.90
73643;DHT22;61938;48.652;9.292;2023-02-01T02:29:06;3.40;99.90
73643;DHT22;61938;48.652;9.292;2023-02-01T02:34:37;3.40;99.90
73643;DHT22;61938;48.652;9.292;2023-02-01T02:40:23;3.50;99.90
73643;DHT22;61938;48.652;9.292;2023-02-01T02:42:52;3.40;99.90
73643;DHT22;61938;48.652;9.292;2023-02-01T02:45:46;3.50;99.90
73643;DHT22;61938;48.652;9.292;2023-02-01T02:48:41;3.50;99.90
73643;DHT22;61938;48.652;9.292;2023-02-01T02:51:26;3.50;99.90
73643;DHT22;61938;48.652;9.292;2023-02-01T02:54:16;3.50;99.90
73643;DHT22;61938;48.652;9.292;2023-02-01T02:57:04;3.50;99.90
73643;DHT22;61938;48.652;9.292;2023-02-01T02:59:51;3.60;99.90
73643;DHT22;61938;48.652;9.292;2023-02-01T03:02:37;3.50;99.90
73643;DHT22;61938;48.652;9.292;2023-02-01T03:05:22;3.60;99.90
73643;DHT22;61938;48.652;9.292;2023-02-01T03:08:04;3.60;99.90
73643;DHT22;61938;48.652;9.292;2023-02-01T03:10:41;3.60;99.90
73643;DHT22;61938;48.652;9.292;2023-02-01T03:13:15;3.60;99.90
73643;DHT22;61938;48.652;9.292;2023-02-01T03:15:50;3.60;99.90
73643;DHT22;61938;48.652;9.292;2023-02-01T03:18:28;3.60;99.90
73643;DHT22;61938;48.652;9.292;2023-02-01T03:20:57;3.60;99.90
73643;DHT22;61938;48.652;9.292;2023-02-01T03:23:28;3.60;99.90
73643;DHT22;61938;48.652;9.292;2023-02-01T03:25:57;3.60;99.90
73643;DHT22;61938;48.652;9.292;2023-02-01T03:28:25;3.60;99.90
73643;DHT22;61938;48.652;9.292;2023-02-01T03:30:53;3.60;99.90
73643;DHT22;61938;48.652;9.292;2023-02-01T03:33:21;3.50;99.90
73643;DHT22;61938;48.652;9.292;2023-02-01T03:38:35;3.50;99.90
73643;DHT22;61938;48.652;9.292;2023-02-01T03:41:20;3.50;99.90
73643;DHT22;61938;48.652;9.292;2023-02-01T03:49:17;3.60;99.90
73643;DHT22;61938;48.652;9.292;2023-02-01T03:51:44;3.60;99.90
73643;DHT22;61938;48.652;9.292;2023-02-01T03:54:13;3.60;99.90
73643;DHT22;61938;48.652;9.292;2023-02-01T03:56:41;3.60;99.90
73643;DHT22;61938;48.652;9.292;2023-02-01T03:59:10;3.60;99.90
73643;DHT22;61938;48.652;9.292;2023-02-01T04:01:35;3.60;99.90
73643;DHT22;61938;48.652;9.292;2023-02-01T04:04:01;3.60;99.90
73643;DHT22;61938;48.652;9.292;2023-02-01T04:06:26;3.60;99.90
73643;DHT22;61938;48.652;9.292;2023-02-01T04:08:52;3.60;99.90
73643;DHT22;61938;48.652;9.292;2023-02-01T04:11:18;3.60;99.90
73643;DHT22;61938;48.652;9.292;2023-02-01T04:13:44;3.60;99.90
73643;DHT22;61938;48.652;9.292;2023-02-01T04:16:10;3.60;99.90
73643;DHT22;61938;48.652;9.292;2023-02-01T04:18:35;3.60;99.90
73643;DHT22;61938;48.652;9.292;2023-02-01T04:21:01;3.60;99.90
73643;DHT22;61938;48.652;9.292;2023-02-01T04:23:28;3.60;99.90
73643;DHT22;61938;48.652;9.292;2023-02-01T04:25:53;3.60;99.90
73643;DHT22;61938;48.652;9.292;2023-02-01T04:28:20;3.60;99.90
73643;DHT22;61938;48.652;9.292;2023-02-01T04:30:46;3.70;99.90
73643;DHT22;61938;48.652;9.292;2023-02-01T04:33:11;3.70;99.90
73643;DHT22;61938;48.652;9.292;2023-02-01T04:35:39;3.70;99.90
73643;DHT22;61938;48.652;9.292;2023-02-01T04:38:05;3.70;99.90
73643;DHT22;61938;48.652;9.292;2023-02-01T04:40:30;3.70;99.90
73643;DHT22;61938;48.652;9.292;2023-02-01T04:42:56;3.70;99.90
73643;DHT22;61938;48.652;9.292;2023-02-01T04:45:21;3.70;99.90
73643;DHT22;61938;48.652;9.292;2023-02-01T04:47:47;3.80;99.90
73643;DHT22;61938;48.652;9.292;2023-02-01T04:50:14;3.80;99.90
73643;DHT22;61938;48.652;9.292;2023-02-01T04:52:39;3.80;99.90
73643;DHT22;61938;48.652;9.292;2023-02-01T04:55:05;3.70;99.90
73643;DHT22;61938;48.652;9.292;2023-02-01T04:57:31;3.70;99.90
73643;DHT22;61938;48.652;9.292;2023-02-01T04:59:56;3.70;99.90
73643;DHT22;61938;48.652;9.292;2023-02-01T05:02:22;3.70;99.90
73643;DHT22;61938;48.652;9.292;2023-02-01T05:04:48;3.70;99.90
73643;DHT22;61938;48.652;9.292;2023-02-01T05:07:13;3.70;99.90
73643;DHT22;61938;48.652;9.292;2023-02-01T05:09:39;3.70;99.90
73643;DHT22;61938;48.652;9.292;2023-02-01T05:12:04;3.70;99.90
73643;DHT22;61938;48.652;9.292;2023-02-01T05:14:48;3.70;99.90
73643;DHT22;61938;48.652;9.292;2023-02-01T05:17:14;3.70;99.90
73643;DHT22;61938;48.652;9.292;2023-02-01T05:19:39;3.70;99.90
73643;DHT22;61938;48.652;9.292;2023-02-01T05:22:05;3.70;99.90
73643;DHT22;61938;48.652;9.292;2023-02-01T05:24:30;3.70;99.90
73643;DHT22;61938;48.652;9.292;2023-02-01T05:26:56;3.70;99.90
73643;DHT22;61938;48.652;9.292;2023-02-01T05:29:21;3.70;99.90
73643;DHT22;61938;48.652;9.292;2023-02-01T05:31:47;3.70;99.90
73643;DHT22;61938;48.652;9.292;2023-02-01T05:34:14;3.60;99.90
73643;DHT22;61938;48.652;9.292;2023-02-01T05:36:40;3.60;99.90
73643;DHT22;61938;48.652;9.292;2023-02-01T05:39:05;3.70;99.90
73643;DHT22;61938;48.652;9.292;2023-02-01T05:41:31;3.70;99.90
73643;DHT22;61938;48.652;9.292;2023-02-01T05:43:57;3.70;99.90
73643;DHT22;61938;48.652;9.292;2023-02-01T05:46:22;3.70;99.90
73643;DHT22;61938;48.652;9.292;2023-02-01T05:48:48;3.70;99.90
73643;DHT22;61938;48.652;9.292;2023-02-01T05:51:14;3.70;99.90
73643;DHT22;61938;48.652;9.292;2023-02-01T05:53:39;3.70;99.90
73643;DHT22;61938;48.652;9.292;2023-02-01T05:56:05;3.70;99.90
73643;DHT22;61938;48.652;9.292;2023-02-01T05:58:31;3.70;99.90
73643;DHT22;61938;48.652;9.292;2023-02-01T06:00:59;3.70;99.90
73643;DHT22;61938;48.652;9.292;2023-02-01T06:03:25;3.70;99.90
73643;DHT22;61938;48.652;9.292;2023-02-01T06:05:51;3.80;99.90
73643;DHT22;61938;48.652;9.292;2023-02-01T06:08:16;3.70;99.90
73643;DHT22;61938;48.652;9.292;2023-02-01T06:10:42;3.70;99.90
73643;DHT22;61938;48.652;9.292;2023-02-01T06:13:08;3.70;99.90
73643;DHT22;61938;48.652;9.292;2023-02-01T06:15:33;3.80;99.90
73643;DHT22;61938;48.652;9.292;2023-02-01T06:17:59;3.80;99.90
73643;DHT22;61938;48.652;9.292;2023-02-01T06:20:25;3.70;99.90
73643;DHT22;61938;48.652;9.292;2023-02-01T06:22:50;3.80;99.90
73643;DHT22;61938;48.652;9.292;2023-02-01T06:25:18;3.70;99.90
73643;DHT22;61938;48.652;9.292;2023-02-01T06:27:44;3.70;99.90
73643;DHT22;61938;48.652;9.292;2023-02-01T06:30:11;3.70;99.90
73643;DHT22;61938;48.652;9.292;2023-02-01T06:32:39;3.60;99.90
73643;DHT22;61938;48.652;9.292;2023-02-01T06:35:06;3.60;99.90
73643;DHT22;61938;48.652;9.292;2023-02-01T06:37:33;3.60;99.90
73643;DHT22;61938;48.652;9.292;2023-02-01T06:39:58;3.60;99.90
73643;DHT22;61938;48.652;9.292;2023-02-01T06:42:24;3.50;99.90
73643;DHT22;61938;48.652;9.292;2023-02-01T06:44:49;3.60;99.90
73643;DHT22;61938;48.652;9.292;2023-02-01T06:47:15;3.60;99.90
73643;DHT22;61938;48.652;9.292;2023-02-01T06:49:40;3.60;99.90
73643;DHT22;61938;48.652;9.292;2023-02-01T06:52:06;3.60;99.90
73643;DHT22;61938;48.652;9.292;2023-02-01T06:54:31;3.60;99.90
73643;DHT22;61938;48.652;9.292;2023-02-01T06:56:58;3.60;99.90
73643;DHT22;61938;48.652;9.292;2023-02-01T06:59:24;3.70;99.90
73643;DHT22;61938;48.652;9.292;2023-02-01T07:01:49;3.70;99.90
73643;DHT22;61938;48.652;9.292;2023-02-01T07:04:15;3.70;99.90
73643;DHT22;61938;48.652;9.292;2023-02-01T07:06:41;3.70;99.90
73643;DHT22;61938;48.652;9.292;2023-02-01T07:09:07;3.70;99.90
73643;DHT22;61938;48.652;9.292;2023-02-01T07:11:33;3.70;99.90
73643;DHT22;61938;48.652;9.292;2023-02-01T07:13:58;3.70;99.90
73643;DHT22;61938;48.652;9.292;2023-02-01T07:16:24;3.70;99.90
73643;DHT22;61938;48.652;9.292;2023-02-01T07:18:51;3.70;99.90
73643;DHT22;61938;48.652;9.292;2023-02-01T07:21:17;3.60;99.90
73643;DHT22;61938;48.652;9.292;2023-02-01T07:23:43;3.70;99.90
73643;DHT22;61938;48.652;9.292;2023-02-01T07:26:11;3.70;99.90
73643;DHT22;61938;48.652;9.292;2023-02-01T07:28:38;3.70;99.90
73643;DHT22;61938;48.652;9.292;2023-02-01T07:31:05;3.70;99.90
73643;DHT22;61938;48.652;9.292;2023-02-01T07:33:32;3.70;99.90
73643;DHT22;61938;48.652;9.292;2023-02-01T07:35:57;3.70;99.90
73643;DHT22;61938;48.652;9.292;2023-02-01T07:38:25;3.80;99.90
73643;DHT22;61938;48.652;9.292;2023-02-01T07:41:00;3.70;99.90
73643;DHT22;61938;48.652;9.292;2023-02-01T07:43:27;3.70;99.90
73643;DHT22;61938;48.652;9.292;2023-02-01T07:45:53;3.70;99.90
73643;DHT22;61938;48.652;9.292;2023-02-01T07:48:20;3.70;99.90
73643;DHT22;61938;48.652;9.292;2023-02-01T07:50:45;3.80;99.90
73643;DHT22;61938;48.652;9.292;2023-02-01T07:53:11;3.80;99.90
73643;DHT22;61938;48.652;9.292;2023-02-01T07:55:40;3.90;99.90
73643;DHT22;61938;48.652;9.292;2023-02-01T07:58:06;3.90;99.90
73643;DHT22;61938;48.652;9.292;2023-02-01T08:00:32;3.90;99.90
73643;DHT22;61938;48.652;9.292;2023-02-01T08:03:16;3.90;99.90
73643;DHT22;61938;48.652;9.292;2023-02-01T08:05:42;3.90;99.90
73643;DHT22;61938;48.652;9.292;2023-02-01T08:08:08;3.90;99.90
73643;DHT22;61938;48.652;9.292;2023-02-01T08:10:34;3.90;99.90
73643;DHT22;61938;48.652;9.292;2023-02-01T08:13:01;3.90;99.90
73643;DHT22;61938;48.652;9.292;2023-02-01T08:15:28;3.90;99.90
73643;DHT22;61938;48.652;9.292;2023-02-01T08:17:54;3.90;99.90
73643;DHT22;61938;48.652;9.292;2023-02-01T08:20:21;4.00;99.90
73643;DHT22;61938;48.652;9.292;2023-02-01T08:22:49;4.00;99.90
73643;DHT22;61938;48.652;9.292;2023-02-01T08:25:14;3.90;99.90
73643;DHT22;61938;48.652;9.292;2023-02-01T08:27:40;3.90;99.90
73643;DHT22;61938;48.652;9.292;2023-02-01T08:30:06;3.90;99.90
73643;DHT22;61938;48.652;9.292;2023-02-01T08:32:33;3.90;99.90
73643;DHT22;61938;48.652;9.292;2023-02-01T08:34:59;4.00;99.90
73643;DHT22;61938;48.652;9.292;2023-02-01T08:37:24;4.00;99.90
73643;DHT22;61938;48.652;9.292;2023-02-01T08:39:50;4.00;99.90
73643;DHT22;61938;48.652;9.292;2023-02-01T08:42:16;4.00;99.90
73643;DHT22;61938;48.652;9.292;2023-02-01T08:45:01;4.00;99.90
73643;DHT22;61938;48.652;9.292;2023-02-01T08:47:27;4.00;99.90
73643;DHT22;61938;48.652;9.292;2023-02-01T08:49:53;4.00;99.90
73643;DHT22;61938;48.652;9.292;2023-02-01T08:52:19;4.10;99.90
73643;DHT22;61938;48.652;9.292;2023-02-01T08:54:44;4.10;99.90
73643;DHT22;61938;48.652;9.292;2023-02-01T08:57:10;4.10;99.90
73643;DHT22;61938;48.652;9.292;2023-02-01T08:59:36;4.20;99.90
73643;DHT22;61938;48.652;9.292;2023-02-01T09:02:01;4.20;99.90
73643;DHT22;61938;48.652;9.292;2023-02-01T09:04:27;4.30;99.90
73643;DHT22;61938;48.652;9.292;2023-02-01T09:06:52;4.30;99.90
73643;DHT22;61938;48.652;9.292;2023-02-01T09:09:21;4.30;99.90
73643;DHT22;61938;48.652;9.292;2023-02-01T09:11:46;4.30;99.90
73643;DHT22;61938;48.652;9.292;2023-02-01T09:14:12;4.30;99.90
73643;DHT22;61938;48.652;9.292;2023-02-01T09:16:37;4.30;99.90
73643;DHT22;61938;48.652;9.292;2023-02-01T09:19:03;4.40;99.90
73643;DHT22;61938;48.652;9.292;2023-02-01T09:21:29;4.30;99.90
73643;DHT22;61938;48.652;9.292;2023-02-01T09:23:54;4.40;99.90
73643;DHT22;61938;48.652;9.292;2023-02-01T09:26:20;4.40;99.90
73643;DHT22;61938;48.652;9.292;2023-02-01T09:28:45;4.40;99.90
73643;DHT22;61938;48.652;9.292;2023-02-01T09:31:11;4.30;99.90
73643;DHT22;61938;48.652;9.292;2023-02-01T09:33:36;4.40;99.90
73643;DHT22;61938;48.652;9.292;2023-02-01T09:36:03;4.30;99.90
73643;DHT22;61938;48.652;9.292;2023-02-01T09:38:30;4.40;99.90
73643;DHT22;61938;48.652;9.292;2023-02-01T09:40:56;4.40;99.90
73643;DHT22;61938;48.652;9.292;2023-02-01T09:43:42;4.40;99.90
73643;DHT22;61938;48.652;9.292;2023-02-01T09:48:54;4.40;99.90
73643;DHT22;61938;48.652;9.292;2023-02-01T09:51:25;4.40;99.90
73643;DHT22;61938;48.652;9.292;2023-02-01T09:54:25;4.40;99.90
73643;DHT22;61938;48.652;9.292;2023-02-01T09:57:08;4.40;99.90
73643;DHT22;61938;48.652;9.292;2023-02-01T09:59:40;4.40;99.90
73643;DHT22;61938;48.652;9.292;2023-02-01T10:02:16;4.40;99.90
73643;DHT22;61938;48.652;9.292;2023-02-01T10:04:42;4.40;99.90
73643;DHT22;61938;48.652;9.292;2023-02-01T10:07:16;4.50;99.90
73643;DHT22;61938;48.652;9.292;2023-02-01T10:18:42;4.60;99.90
73643;DHT22;61938;48.652;9.292;2023-02-01T10:21:54;4.60;99.90
73643;DHT22;61938;48.652;9.292;2023-02-01T10:27:19;4.60;99.90
73643;DHT22;61938;48.652;9.292;2023-02-01T10:29:51;4.60;99.90
73643;DHT22;61938;48.652;9.292;2023-02-01T10:32:29;4.70;99.90
73643;DHT22;61938;48.652;9.292;2023-02-01T10:35:04;4.60;99.90
73643;DHT22;61938;48.652;9.292;2023-02-01T10:37:34;4.70;99.90
73643;DHT22;61938;48.652;9.292;2023-02-01T10:40:21;4.70;99.90
73643;DHT22;61938;48.652;9.292;2023-02-01T10:42:50;4.70;99.90
73643;DHT22;61938;48.652;9.292;2023-02-01T10:45:19;4.80;99.90
73643;DHT22;61938;48.652;9.292;2023-02-01T10:47:48;4.80;99.90
73643;DHT22;61938;48.652;9.292;2023-02-01T10:53:21;4.80;99.90
73643;DHT22;61938;48.652;9.292;2023-02-01T10:55:51;4.80;99.90
73643;DHT22;61938;48.652;9.292;2023-02-01T10:58:27;4.90;99.90
73643;DHT22;61938;48.652;9.292;2023-02-01T11:00:57;4.80;99.90
73643;DHT22;61938;48.652;9.292;2023-02-01T11:03:38;4.90;99.90
73643;DHT22;61938;48.652;9.292;2023-02-01T11:06:17;4.90;99.90
73643;DHT22;61938;48.652;9.292;2023-02-01T11:08:48;4.90;99.90
73643;DHT22;61938;48.652;9.292;2023-02-01T11:11:15;4.90;99.90
73643;DHT22;61938;48.652;9.292;2023-02-01T11:13:41;4.90;99.90
73643;DHT22;61938;48.652;9.292;2023-02-01T11:16:11;5.00;99.90
73643;DHT22;61938;48.652;9.292;2023-02-01T11:18:38;5.00;99.90
73643;DHT22;61938;48.652;9.292;2023-02-01T11:21:08;5.00;99.90
73643;DHT22;61938;48.652;9.292;2023-02-01T11:23:40;5.00;99.90
73643;DHT22;61938;48.652;9.292;2023-02-01T11:26:33;5.10;99.90
73643;DHT22;61938;48.652;9.292;2023-02-01T11:29:11;5.20;99.90
73643;DHT22;61938;48.652;9.292;2023-02-01T11:31:39;5.30;99.90
73643;DHT22;61938;48.652;9.292;2023-02-01T11:34:12;5.30;99.90
73643;DHT22;61938;48.652;9.292;2023-02-01T11:36:40;5.40;99.90
73643;DHT22;61938;48.652;9.292;2023-02-01T11:42:04;5.50;99.90
73643;DHT22;61938;48.652;9.292;2023-02-01T11:44:41;5.50;99.90
73643;DHT22;61938;48.652;9.292;2023-02-01T11:47:27;5.60;99.90
73643;DHT22;61938;48.652;9.292;2023-02-01T11:49:55;5.60;99.90
73643;DHT22;61938;48.652;9.292;2023-02-01T11:55:26;5.70;99.90
73643;DHT22;61938;48.652;9.292;2023-02-01T12:06:05;5.70;99.90
73643;DHT22;61938;48.652;9.292;2023-02-01T12:09:06;5.60;99.90
73643;DHT22;61938;48.652;9.292;2023-02-01T12:12:06;5.60;99.90
73643;DHT22;61938;48.652;9.292;2023-02-01T12:14:51;5.60;99.90
73643;DHT22;61938;48.652;9.292;2023-02-01T12:20:46;5.50;99.90
73643;DHT22;61938;48.652;9.292;2023-02-01T12:29:18;5.50;99.90
73643;DHT22;61938;48.652;9.292;2023-02-01T12:35:03;5.40;99.90
73643;DHT22;61938;48.652;9.292;2023-02-01T12:37:51;5.40;99.90
73643;DHT22;61938;48.652;9.292;2023-02-01T12:46:04;5.40;99.90
73643;DHT22;61938;48.652;9.292;2023-02-01T12:48:38;5.30;99.90
73643;DHT22;61938;48.652;9.292;2023-02-01T12:51:16;5.30;99.90
73643;DHT22;61938;48.652;9.292;2023-02-01T12:54:02;5.30;99.90
73643;DHT22;61938;48.652;9.292;2023-02-01T12:56:37;5.20;99.90
73643;DHT22;61938;48.652;9.292;2023-02-01T12:59:09;5.30;99.90
73643;DHT22;61938;48.652;9.292;2023-02-01T13:01:48;5.20;99.90
73643;DHT22;61938;48.652;9.292;2023-02-01T13:04:28;5.30;99.90
73643;DHT22;61938;48.652;9.292;2023-02-01T13:07:18;5.20;99.90
73643;DHT22;61938;48.652;9.292;2023-02-01T13:13:11;5.20;99.90
73643;DHT22;61938;48.652;9.292;2023-02-01T13:15:44;5.20;99.90
73643;DHT22;61938;48.652;9.292;2023-02-01T13:18:18;5.20;99.90
73643;DHT22;61938;48.652;9.292;2023-02-01T13:20:56;5.20;99.90
73643;DHT22;61938;48.652;9.292;2023-02-01T13:23:27;5.20;99.90
73643;DHT22;61938;48.652;9.292;2023-02-01T13:25:55;5.20;99.90
73643;DHT22;61938;48.652;9.292;2023-02-01T13:28:28;5.20;99.90
73643;DHT22;61938;48.652;9.292;2023-02-01T13:39:59;5.10;99.90
73643;DHT22;61938;48.652;9.292;2023-02-01T13:42:47;5.20;99.90
73643;DHT22;61938;48.652;9.292;2023-02-01T13:45:24;5.10;99.90
73643;DHT22;61938;48.652;9.292;2023-02-01T13:47:53;5.10;99.90
73643;DHT22;61938;48.652;9.292;2023-02-01T13:53:11;5.20;99.90
73643;DHT22;61938;48.652;9.292;2023-02-01T13:55:41;5.20;99.90
73643;DHT22;61938;48.652;9.292;2023-02-01T14:00:39;5.20;99.90
73643;DHT22;61938;48.652;9.292;2023-02-01T14:10:52;5.10;99.90
73643;DHT22;61938;48.652;9.292;2023-02-01T14:21:32;5.20;99.90
73643;DHT22;61938;48.652;9.292;2023-02-01T14:23:59;5.10;99.90
73643;DHT22;61938;48.652;9.292;2023-02-01T14:26:40;5.10;99.90
73643;DHT22;61938;48.652;9.292;2023-02-01T14:29:31;5.10;99.90
73643;DHT22;61938;48.652;9.292;2023-02-01T14:32:18;5.10;99.90
73643;DHT22;61938;48.652;9.292;2023-02-01T14:40:04;5.10;99.90
73643;DHT22;61938;48.652;9.292;2023-02-01T14:47:47;5.00;99.90
73643;DHT22;61938;48.652;9.292;2023-02-01T14:55:51;5.00;99.90
73643;DHT22;61938;48.652;9.292;2023-02-01T14:58:41;5.00;99.90
73643;DHT22;61938;48.652;9.292;2023-02-01T15:01:30;5.00;99.90
73643;DHT22;61938;48.652;9.292;2023-02-01T15:04:11;5.00;99.90
73643;DHT22;61938;48.652;9.292;2023-02-01T15:06:41;5.00;99.90
73643;DHT22;61938;48.652;9.292;2023-02-01T15:14:26;5.00;99.90
73643;DHT22;61938;48.652;9.292;2023-02-01T15:16:51;5.00;99.90
73643;DHT22;61938;48.652;9.292;2023-02-01T15:19:26;5.00;99.90
73643;DHT22;61938;48.652;9.292;2023-02-01T15:21:54;5.00;99.90
73643;DHT22;61938;48.652;9.292;2023-02-01T15:24:27;4.90;99.90
73643;DHT22;61938;48.652;9.292;2023-02-01T15:26:54;5.00;99.90
73643;DHT22;61938;48.652;9.292;2023-02-01T15:29:23;4.90;99.90
73643;DHT22;61938;48.652;9.292;2023-02-01T15:31:53;4.90;99.90
73643;DHT22;61938;48.652;9.292;2023-02-01T15:34:19;4.90;99.90
73643;DHT22;61938;48.652;9.292;2023-02-01T15:36:46;4.90;99.90
73643;DHT22;61938;48.652;9.292;2023-02-01T15:39:16;4.90;99.90
73643;DHT22;61938;48.652;9.292;2023-02-01T15:41:46;4.90;99.90
73643;DHT22;61938;48.652;9.292;2023-02-01T15:44:30;4.90;99.90
73643;DHT22;61938;48.652;9.292;2023-02-01T15:46:57;4.90;99.90
73643;DHT22;61938;48.652;9.292;2023-02-01T15:49:36;4.90;99.90
73643;DHT22;61938;48.652;9.292;2023-02-01T15:52:02;4.90;99.90
73643;DHT22;61938;48.652;9.292;2023-02-01T15:54:45;4.90;99.90
73643;DHT22;61938;48.652;9.292;2023-02-01T15:57:11;4.90;99.90
73643;DHT22;61938;48.652;9.292;2023-02-01T15:59:43;4.90;99.90
73643;DHT22;61938;48.652;9.292;2023-02-01T16:02:37;4.90;99.90
73643;DHT22;61938;48.652;9.292;2023-02-01T16:05:05;4.90;99.90
73643;DHT22;61938;48.652;9.292;2023-02-01T16:07:33;4.90;99.90
73643;DHT22;61938;48.652;9.292;2023-02-01T16:10:01;4.90;99.90
73643;DHT22;61938;48.652;9.292;2023-02-01T16:15:05;4.90;99.90
73643;DHT22;61938;48.652;9.292;2023-02-01T16:17:31;4.90;99.90
73643;DHT22;61938;48.652;9.292;2023-02-01T16:19:57;4.90;99.90
73643;DHT22;61938;48.652;9.292;2023-02-01T16:22:23;4.80;99.90
73643;DHT22;61938;48.652;9.292;2023-02-01T16:24:49;4.80;99.90
73643;DHT22;61938;48.652;9.292;2023-02-01T16:27:15;4.90;99.90
73643;DHT22;61938;48.652;9.292;2023-02-01T16:29:40;4.80;99.90
73643;DHT22;61938;48.652;9.292;2023-02-01T16:32:08;4.80;99.90
73643;DHT22;61938;48.652;9.292;2023-02-01T16:34:35;4.80;99.90
73643;DHT22;61938;48.652;9.292;2023-02-01T16:37:03;4.80;99.90
73643;DHT22;61938;48.652;9.292;2023-02-01T16:39:28;4.80;99.90
73643;DHT22;61938;48.652;9.292;2023-02-01T16:41:55;4.90;99.90
73643;DHT22;61938;48.652;9.292;2023-02-01T16:44:20;4.90;99.90
73643;DHT22;61938;48.652;9.292;2023-02-01T16:46:47;4.90;99.90
73643;DHT22;61938;48.652;9.292;2023-02-01T16:49:24;4.80;99.90
73643;DHT22;61938;48.652;9.292;2023-02-01T16:51:51;4.80;99.90
73643;DHT22;61938;48.652;9.292;2023-02-01T16:54:20;4.80;99.90
73643;DHT22;61938;48.652;9.292;2023-02-01T16:56:46;4.80;99.90
73643;DHT22;61938;48.652;9.292;2023-02-01T16:59:12;4.70;99.90
73643;DHT22;61938;48.652;9.292;2023-02-01T17:01:39;4.80;99.90
73643;DHT22;61938;48.652;9.292;2023-02-01T17:04:07;4.80;99.90
73643;DHT22;61938;48.652;9.292;2023-02-01T17:06:33;4.80;99.90
73643;DHT22;61938;48.652;9.292;2023-02-01T17:09:02;4.80;99.90
73643;DHT22;61938;48.652;9.292;2023-02-01T17:11:28;4.80;99.90
73643;DHT22;61938;48.652;9.292;2023-02-01T17:13:56;4.80;99.90
73643;DHT22;61938;48.652;9.292;2023-02-01T17:16:27;4.80;99.90
73643;DHT22;61938;48.652;9.292;2023-02-01T17:19:02;4.80;99.90
73643;DHT22;61938;48.652;9.292;2023-02-01T17:21:30;4.80;99.90
73643;DHT22;61938;48.652;9.292;2023-02-01T17:23:59;4.70;99.90
73643;DHT22;61938;48.652;9.292;2023-02-01T17:26:26;4.70;99.90
73643;DHT22;61938;48.652;9.292;2023-02-01T17:28:51;4.80;99.90
73643;DHT22;61938;48.652;9.292;2023-02-01T17:31:17;4.80;99.90
73643;DHT22;61938;48.652;9.292;2023-02-01T17:33:43;4.70;99.90
73643;DHT22;61938;48.652;9.292;2023-02-01T17:36:12;4.70;99.90
73643;DHT22;61938;48.652;9.292;2023-02-01T17:38:38;4.80;99.90
73643;DHT22;61938;48.652;9.292;2023-02-01T17:41:04;4.80;99.90
73643;DHT22;61938;48.652;9.292;2023-02-01T17:43:30;4.80;99.90
73643;DHT22;61938;48.652;9.292;2023-02-01T17:45:59;4.70;99.90
73643;DHT22;61938;48.652;9.292;2023-02-01T17:48:27;4.60;99.90
73643;DHT22;61938;48.652;9.292;2023-02-01T17:50:52;4.70;99.90
73643;DHT22;61938;48.652;9.292;2023-02-01T17:53:25;4.70;99.90
73643;DHT22;61938;48.652;9.292;2023-02-01T17:55:51;4.70;99.90
73643;DHT22;61938;48.652;9.292;2023-02-01T17:58:18;4.60;99.90
73643;DHT22;61938;48.652;9.292;2023-02-01T18:00:45;4.60;99.90
73643;DHT22;61938;48.652;9.292;2023-02-01T18:05:43;4.60;99.90
73643;DHT22;61938;48.652;9.292;2023-02-01T18:08:15;4.60;99.90
73643;DHT22;61938;48.652;9.292;2023-02-01T18:10:41;4.50;99.90
73643;DHT22;61938;48.652;9.292;2023-02-01T18:13:06;4.50;99.90
73643;DHT22;61938;48.652;9.292;2023-02-01T18:15:32;4.50;99.90
73643;DHT22;61938;48.652;9.292;2023-02-01T18:17:57;4.40;99.90